Time;durP1;ratioP1;P1;durP2;ratioP2;P2;SDS_P1;SDS_P2;PMS_P1;PMS_P2;Temp;Humidity;BMP_temperature;BMP_pressure;BME280_temperature;BME280_humidity;BME280_pressure;Samples;Min_cycle;Max_cycle;Signal;HPM_P1;HPM_P2
2022/12/14 00:00:27;;;;;;;87.88;30.67;;;;;;;;;;5059477;28;20055;-79
2022/12/14 00:02:52;;;;;;;93.22;33.00;;;;;;;;;;5077163;28;20033;-79
2022/12/14 00:05:18;;;;;;;95.40;32.58;;;;;;;;;;5076859;28;20028;-77
2022/12/14 00:07:44;;;;;;;90.07;31.35;;;;;;;;;;5059208;28;20060;-77
2022/12/14 00:10:10;;;;;;;85.13;28.80;;;;;;;;;;5042588;28;20029;-77
2022/12/14 00:12:36;;;;;;;90.63;29.10;;;;;;;;;;5025928;28;20040;-77
2022/12/14 00:15:02;;;;;;;81.43;27.00;;;;;;;;;;5076722;28;20067;-77
2022/12/14 00:17:27;;;;;;;80.00;27.17;;;;;;;;;;5042270;28;20040;-78
2022/12/14 00:19:53;;;;;;;78.05;26.15;;;;;;;;;;5059788;28;20119;-77
2022/12/14 00:22:19;;;;;;;75.88;26.38;;;;;;;;;;5078193;28;20414;-78
2022/12/14 00:24:44;;;;;;;79.68;27.95;;;;;;;;;;5064581;28;20080;-78
2022/12/14 00:27:10;;;;;;;79.10;27.88;;;;;;;;;;5063573;28;20488;-79
2022/12/14 00:29:35;;;;;;;68.95;24.08;;;;;;;;;;5060385;28;20024;-77
2022/12/14 00:32:01;;;;;;;81.03;26.55;;;;;;;;;;5059211;28;20036;-78
2022/12/14 00:34:26;;;;;;;81.65;25.05;;;;;;;;;;5058814;28;20357;-77
2022/12/14 00:36:51;;;;;;;63.42;20.27;;;;;;;;;;5058439;28;20055;-77
2022/12/14 00:39:17;;;;;;;83.25;26.45;;;;;;;;;;5058616;28;20040;-77
2022/12/14 00:41:42;;;;;;;73.45;24.73;;;;;;;;;;5076026;28;20032;-77
2022/12/14 00:44:08;;;;;;;75.05;24.02;;;;;;;;;;5058471;28;20082;-77
2022/12/14 00:46:33;;;;;;;67.00;23.65;;;;;;;;;;5041750;28;20119;-79
2022/12/14 00:48:59;;;;;;;69.53;23.80;;;;;;;;;;5041749;28;20122;-78
2022/12/14 00:51:24;;;;;;;73.68;24.15;;;;;;;;;;5076441;28;20040;-78
2022/12/14 00:53:50;;;;;;;71.18;24.48;;;;;;;;;;5076334;28;20055;-77
2022/12/14 00:56:15;;;;;;;74.72;25.48;;;;;;;;;;5057679;28;20044;-77
2022/12/14 00:58:40;;;;;;;69.40;22.88;;;;;;;;;;5076073;28;20360;-78
2022/12/14 01:01:07;;;;;;;80.60;25.25;;;;;;;;;;5058281;28;20024;-78
2022/12/14 01:03:33;;;;;;;64.18;24.17;;;;;;;;;;5058184;28;20039;-78
2022/12/14 01:05:58;;;;;;;62.58;22.50;;;;;;;;;;5058382;28;20029;-78
2022/12/14 01:08:24;;;;;;;72.82;24.80;;;;;;;;;;5024900;28;20031;-77
2022/12/14 01:10:50;;;;;;;83.75;29.15;;;;;;;;;;5056906;28;20044;-77
2022/12/14 01:13:15;;;;;;;74.53;25.85;;;;;;;;;;5058070;28;20033;-77
2022/12/14 01:15:41;;;;;;;75.53;28.60;;;;;;;;;;5057914;28;20036;-77
2022/12/14 01:18:06;;;;;;;70.32;24.67;;;;;;;;;;5075603;28;20074;-78
2022/12/14 01:20:32;;;;;;;68.38;22.65;;;;;;;;;;5075747;28;20043;-77
2022/12/14 01:22:57;;;;;;;64.15;25.00;;;;;;;;;;5075670;28;20029;-78
2022/12/14 01:25:23;;;;;;;67.18;24.13;;;;;;;;;;5041095;28;20091;-78
2022/12/14 01:27:48;;;;;;;66.90;25.52;;;;;;;;;;5057830;28;20047;-78
2022/12/14 01:30:14;;;;;;;71.10;25.27;;;;;;;;;;5041056;28;20043;-78
2022/12/14 01:32:39;;;;;;;67.85;25.30;;;;;;;;;;5057858;28;20020;-78
2022/12/14 01:35:05;;;;;;;67.18;23.48;;;;;;;;;;5075040;28;20119;-77
2022/12/14 01:37:30;;;;;;;64.38;24.50;;;;;;;;;;5075365;28;20072;-77
2022/12/14 01:39:55;;;;;;;65.65;23.50;;;;;;;;;;5057186;28;20037;-77
2022/12/14 01:42:21;;;;;;;57.08;21.90;;;;;;;;;;5075033;28;20035;-78
2022/12/14 01:44:54;;;;;;;63.13;23.88;;;;;;;;;;5075394;28;20039;-77
2022/12/14 01:47:40;;;;;;;65.32;23.83;;;;;;;;;;5040808;28;20029;-78
2022/12/14 01:50:39;;;;;;;71.25;26.02;;;;;;;;;;5057547;28;20399;-77
2022/12/14 01:53:06;;;;;;;74.78;26.75;;;;;;;;;;5038599;28;20047;-78
2022/12/14 01:55:40;;;;;;;79.55;28.95;;;;;;;;;;5057100;28;20085;-78
2022/12/14 01:58:14;;;;;;;79.93;28.73;;;;;;;;;;5040408;28;20036;-77
2022/12/14 02:00:40;;;;;;;78.25;29.75;;;;;;;;;;5040732;28;20037;-78
2022/12/14 02:03:16;;;;;;;79.10;29.92;;;;;;;;;;5040543;28;20086;-76
2022/12/14 02:05:45;;;;;;;78.47;28.00;;;;;;;;;;5056748;28;20029;-78
2022/12/14 02:08:10;;;;;;;78.32;27.80;;;;;;;;;;5024245;28;20029;-78
2022/12/14 02:10:36;;;;;;;88.70;32.88;;;;;;;;;;5039743;28;20384;-78
2022/12/14 02:13:05;;;;;;;83.70;29.33;;;;;;;;;;5040387;28;20033;-78
2022/12/14 02:15:31;;;;;;;79.90;28.80;;;;;;;;;;5057039;28;20085;-78
2022/12/14 02:17:56;;;;;;;81.10;28.50;;;;;;;;;;5040284;28;20040;-78
2022/12/14 02:20:22;;;;;;;87.20;30.33;;;;;;;;;;5056296;28;20028;-78
2022/12/14 02:22:50;;;;;;;94.93;33.20;;;;;;;;;;5056884;28;20446;-78
2022/12/14 02:25:24;;;;;;;103.05;33.10;;;;;;;;;;5074660;28;20118;-78
2022/12/14 02:28:33;;;;;;;90.03;30.52;;;;;;;;;;5056318;28;20045;-78
2022/12/14 02:31:30;;;;;;;89.72;30.85;;;;;;;;;;5043285;28;20044;-77
2022/12/14 02:34:28;;;;;;;75.20;27.75;;;;;;;;;;5066397;28;20465;-78
2022/12/14 02:37:01;;;;;;;71.35;26.80;;;;;;;;;;5073691;28;20131;-78
2022/12/14 02:39:44;;;;;;;69.05;25.77;;;;;;;;;;5039988;28;20085;-78
2022/12/14 02:42:14;;;;;;;67.55;24.55;;;;;;;;;;5040650;28;20091;-78
2022/12/14 02:45:03;;;;;;;70.40;26.27;;;;;;;;;;5039813;28;20094;-77
2022/12/14 02:47:53;;;;;;;70.72;25.42;;;;;;;;;;5056001;28;20128;-78
2022/12/14 02:50:24;;;;;;;61.53;24.90;;;;;;;;;;5074148;28;20035;-78
2022/12/14 02:52:57;;;;;;;52.53;18.38;;;;;;;;;;5056096;28;20024;-78
2022/12/14 02:55:28;;;;;;;64.80;24.42;;;;;;;;;;5056488;28;20039;-78
2022/12/14 02:58:18;;;;;;;70.78;25.67;;;;;;;;;;5023660;28;20032;-79
2022/12/14 03:00:44;;;;;;;64.75;25.45;;;;;;;;;;5073808;28;20115;-78
2022/12/14 03:03:09;;;;;;;61.08;24.75;;;;;;;;;;5056568;28;20433;-78
2022/12/14 03:05:34;;;;;;;68.00;24.33;;;;;;;;;;5056068;28;20090;-78
2022/12/14 03:08:05;;;;;;;59.55;23.40;;;;;;;;;;5039184;28;20135;-78
2022/12/14 03:10:42;;;;;;;55.97;20.75;;;;;;;;;;5073967;28;20032;-78
2022/12/14 03:13:21;;;;;;;65.07;23.77;;;;;;;;;;5057495;28;20028;-77
2022/12/14 03:15:52;;;;;;;71.20;26.63;;;;;;;;;;5057663;28;20035;-77
2022/12/14 03:18:18;;;;;;;69.07;25.73;;;;;;;;;;5039963;28;20021;-78
2022/12/14 03:20:43;;;;;;;66.05;25.13;;;;;;;;;;5038886;28;20431;-77
2022/12/14 03:23:11;;;;;;;61.53;25.15;;;;;;;;;;5038916;28;20362;-78
2022/12/14 03:26:14;;;;;;;76.60;25.55;;;;;;;;;;5039427;28;20020;-77
2022/12/14 03:28:49;;;;;;;56.85;22.73;;;;;;;;;;4953682;29;20043;-77
2022/12/14 03:31:19;;;;;;;65.28;25.27;;;;;;;;;;5022309;28;20388;-78
2022/12/14 03:33:45;;;;;;;62.65;24.38;;;;;;;;;;5058791;28;20029;-77
2022/12/14 03:36:33;;;;;;;59.30;22.27;;;;;;;;;;5059508;28;20473;-78
2022/12/14 03:38:59;;;;;;;64.68;24.33;;;;;;;;;;5045868;28;20041;-77
2022/12/14 03:41:38;;;;;;;60.88;23.90;;;;;;;;;;5043226;28;20039;-77
2022/12/14 03:44:35;;;;;;;69.38;25.33;;;;;;;;;;5060898;28;20033;-77
2022/12/14 03:47:45;;;;;;;60.63;23.42;;;;;;;;;;5059758;28;20037;-78
2022/12/14 03:50:33;;;;;;;65.18;22.23;;;;;;;;;;4960057;28;20030;-78
2022/12/14 03:53:11;;;;;;;73.20;27.98;;;;;;;;;;5004155;28;20125;-77
2022/12/14 03:55:51;;;;;;;65.20;24.48;;;;;;;;;;5077199;28;20024;-78
2022/12/14 03:58:36;;;;;;;79.45;31.67;;;;;;;;;;5059342;28;20020;-77
2022/12/14 04:01:20;;;;;;;69.70;24.95;;;;;;;;;;5076845;28;20039;-77
2022/12/14 04:04:11;;;;;;;70.13;28.17;;;;;;;;;;5059288;28;20056;-77
2022/12/14 04:06:49;;;;;;;61.80;24.88;;;;;;;;;;5059056;28;20086;-77
2022/12/14 04:09:20;;;;;;;68.97;27.35;;;;;;;;;;5059277;28;20029;-78
2022/12/14 04:20:28;;;;;;;64.55;25.10;;;;;;;;;;5061397;28;20089;-78
2022/12/14 04:23:10;;;;;;;56.20;22.08;;;;;;;;;;5043101;28;20077;-78
2022/12/14 04:31:09;;;;;;;55.42;21.55;;;;;;;;;;5047480;28;20040;-78
2022/12/14 04:33:45;;;;;;;49.08;20.05;;;;;;;;;;5042003;28;20119;-77
2022/12/14 04:36:12;;;;;;;53.90;21.48;;;;;;;;;;5043134;28;20051;-77
2022/12/14 04:38:37;;;;;;;60.20;22.10;;;;;;;;;;5042338;28;20029;-77
2022/12/14 04:41:08;;;;;;;48.80;19.45;;;;;;;;;;5058489;28;20025;-77
2022/12/14 04:43:35;;;;;;;59.83;23.65;;;;;;;;;;5042190;28;20043;-77
2022/12/14 04:46:08;;;;;;;55.55;22.77;;;;;;;;;;5042179;28;20040;-76
2022/12/14 04:48:35;;;;;;;64.68;23.27;;;;;;;;;;5042681;28;20040;-77
2022/12/14 04:51:09;;;;;;;62.28;23.92;;;;;;;;;;5058460;28;20115;-78
2022/12/14 04:53:35;;;;;;;64.55;25.92;;;;;;;;;;5042481;28;20036;-77
2022/12/14 04:56:15;;;;;;;62.88;24.38;;;;;;;;;;5041833;28;20365;-78
2022/12/14 04:58:40;;;;;;;58.80;23.70;;;;;;;;;;5058307;28;20033;-78
2022/12/14 05:01:14;;;;;;;66.57;27.02;;;;;;;;;;5058155;28;20029;-77
2022/12/14 05:04:01;;;;;;;67.47;27.02;;;;;;;;;;5075700;28;20032;-76
2022/12/14 05:06:39;;;;;;;68.40;27.63;;;;;;;;;;5059909;28;20399;-78
2022/12/14 05:09:18;;;;;;;61.33;23.88;;;;;;;;;;5059676;28;20103;-78
2022/12/14 05:12:03;;;;;;;68.35;25.52;;;;;;;;;;5055840;28;20441;-77
2022/12/14 05:14:44;;;;;;;72.30;29.17;;;;;;;;;;5058930;28;20115;-77
2022/12/14 05:17:09;;;;;;;68.75;27.00;;;;;;;;;;5057564;28;20036;-78
2022/12/14 05:19:35;;;;;;;66.78;26.02;;;;;;;;;;5041082;28;20040;-76
2022/12/14 05:22:06;;;;;;;71.03;28.02;;;;;;;;;;5058205;28;20032;-78
2022/12/14 05:24:35;;;;;;;75.43;28.98;;;;;;;;;;5076074;28;20071;-78
2022/12/14 05:27:01;;;;;;;77.13;30.02;;;;;;;;;;5041720;28;20369;-81
2022/12/14 05:29:26;;;;;;;72.75;29.33;;;;;;;;;;5058441;28;20039;-78
2022/12/14 05:31:52;;;;;;;70.63;27.30;;;;;;;;;;5075023;28;20028;-78
2022/12/14 05:34:17;;;;;;;79.00;31.40;;;;;;;;;;5076525;28;20424;-78
2022/12/14 05:36:43;;;;;;;74.95;30.48;;;;;;;;;;5075333;28;20052;-78
2022/12/14 05:39:08;;;;;;;74.13;30.00;;;;;;;;;;5073689;28;20071;-77
2022/12/14 05:41:33;;;;;;;73.28;31.33;;;;;;;;;;5074010;28;20048;-78
2022/12/14 05:43:59;;;;;;;74.55;29.58;;;;;;;;;;5075190;28;20032;-78
2022/12/14 05:46:24;;;;;;;78.22;31.05;;;;;;;;;;5058038;28;20028;-79
2022/12/14 05:48:51;;;;;;;80.20;33.10;;;;;;;;;;5074390;28;20032;-78
2022/12/14 05:51:17;;;;;;;71.10;28.15;;;;;;;;;;5052706;28;20036;-77
2022/12/14 05:53:43;;;;;;;79.40;31.92;;;;;;;;;;5033313;28;20036;-77
2022/12/14 05:56:09;;;;;;;63.05;25.02;;;;;;;;;;5046192;28;20048;-78
2022/12/14 05:58:35;;;;;;;75.00;31.38;;;;;;;;;;5047028;28;20078;-79
2022/12/14 06:01:01;;;;;;;78.13;31.60;;;;;;;;;;5062606;28;20481;-77
2022/12/14 06:03:27;;;;;;;76.90;31.58;;;;;;;;;;5048948;28;20052;-78
2022/12/14 06:05:52;;;;;;;77.85;33.65;;;;;;;;;;5036838;28;20113;-78
2022/12/14 06:08:18;;;;;;;81.53;32.40;;;;;;;;;;5071514;28;20471;-77
2022/12/14 06:10:43;;;;;;;72.03;29.35;;;;;;;;;;5055008;28;20125;-79
2022/12/14 06:13:10;;;;;;;67.80;26.52;;;;;;;;;;5074327;28;20028;-79
2022/12/14 06:15:36;;;;;;;69.65;27.23;;;;;;;;;;5070952;28;20476;-79
2022/12/14 06:18:01;;;;;;;66.40;26.05;;;;;;;;;;5067312;28;20064;-77
2022/12/14 06:20:26;;;;;;;70.10;30.00;;;;;;;;;;5069183;28;20119;-77
2022/12/14 06:22:55;;;;;;;79.80;28.92;;;;;;;;;;5051010;28;20730;-77
2022/12/14 06:25:20;;;;;;;70.63;31.42;;;;;;;;;;5051180;28;20031;-77
2022/12/14 06:27:46;;;;;;;72.97;30.88;;;;;;;;;;5068690;28;20616;-78
2022/12/14 06:30:12;;;;;;;73.00;29.35;;;;;;;;;;5052637;28;20166;-77
2022/12/14 06:32:37;;;;;;;77.22;31.05;;;;;;;;;;5055065;28;20409;-77
2022/12/14 06:35:03;;;;;;;79.65;32.97;;;;;;;;;;5054908;28;20137;-76
2022/12/14 06:37:30;;;;;;;69.97;31.23;;;;;;;;;;5070580;28;20036;-76
2022/12/14 06:39:55;;;;;;;84.45;31.77;;;;;;;;;;5073132;28;20036;-78
2022/12/14 06:42:21;;;;;;;74.20;30.88;;;;;;;;;;5072414;28;20029;-78
2022/12/14 06:44:46;;;;;;;68.72;29.17;;;;;;;;;;5056051;28;20032;-79
2022/12/14 06:47:12;;;;;;;75.53;29.83;;;;;;;;;;5038429;28;20040;-80
2022/12/14 06:49:37;;;;;;;92.43;34.47;;;;;;;;;;5062133;28;20028;-80
2022/12/14 06:52:03;;;;;;;80.97;32.42;;;;;;;;;;5075703;28;20090;-80
2022/12/14 06:54:37;;;;;;;70.35;29.55;;;;;;;;;;5067993;28;20036;-78
2022/12/14 06:57:02;;;;;;;52.55;23.15;;;;;;;;;;5050939;28;20047;-81
2022/12/14 06:59:28;;;;;;;62.70;26.42;;;;;;;;;;5050921;28;20029;-79
2022/12/14 07:01:53;;;;;;;67.90;28.35;;;;;;;;;;5066848;28;20024;-78
2022/12/14 07:04:20;;;;;;;63.03;27.55;;;;;;;;;;5067975;28;20067;-78
2022/12/14 07:06:45;;;;;;;64.97;27.48;;;;;;;;;;5071734;28;20032;-78
2022/12/14 07:09:13;;;;;;;71.85;27.90;;;;;;;;;;5074825;28;20047;-78
2022/12/14 07:11:40;;;;;;;65.97;26.50;;;;;;;;;;5058076;28;20116;-79
2022/12/14 07:14:06;;;;;;;69.05;29.25;;;;;;;;;;5056247;28;20036;-79
2022/12/14 07:16:32;;;;;;;74.80;30.67;;;;;;;;;;5055418;28;20036;-78
2022/12/14 07:18:57;;;;;;;72.10;30.35;;;;;;;;;;5037025;28;20025;-79
2022/12/14 07:21:23;;;;;;;78.93;31.75;;;;;;;;;;5038118;28;20051;-79
2022/12/14 07:23:51;;;;;;;61.58;24.73;;;;;;;;;;5072724;28;20036;-78
2022/12/14 07:26:23;;;;;;;68.07;27.33;;;;;;;;;;5072724;28;20059;-79
2022/12/14 07:28:49;;;;;;;59.33;27.10;;;;;;;;;;5055744;28;20047;-79
2022/12/14 07:31:24;;;;;;;68.00;28.27;;;;;;;;;;5056673;28;20021;-78
2022/12/14 07:33:57;;;;;;;68.20;29.67;;;;;;;;;;5074767;28;20127;-77
2022/12/14 07:36:23;;;;;;;63.17;25.25;;;;;;;;;;5058583;28;20045;-79
2022/12/14 07:38:49;;;;;;;60.83;26.85;;;;;;;;;;5075199;28;20067;-80
2022/12/14 07:41:29;;;;;;;62.97;26.20;;;;;;;;;;5074471;28;20063;-79
2022/12/14 07:43:55;;;;;;;59.05;26.63;;;;;;;;;;5046629;28;20478;-78
2022/12/14 07:46:22;;;;;;;63.20;26.17;;;;;;;;;;5021154;28;20028;-78
2022/12/14 07:48:49;;;;;;;56.42;23.58;;;;;;;;;;5038403;28;20627;-78
2022/12/14 07:51:16;;;;;;;53.22;23.95;;;;;;;;;;5072986;28;20036;-79
2022/12/14 07:53:42;;;;;;;60.95;26.98;;;;;;;;;;5055876;28;20345;-78
2022/12/14 07:56:10;;;;;;;69.60;32.20;;;;;;;;;;5073935;28;20055;-79
2022/12/14 07:58:35;;;;;;;65.82;27.00;;;;;;;;;;5055601;28;20449;-79
2022/12/14 08:01:12;;;;;;;73.97;31.63;;;;;;;;;;5073512;28;20031;-78
2022/12/14 08:03:39;;;;;;;65.63;25.85;;;;;;;;;;5056452;28;20065;-79
2022/12/14 08:06:06;;;;;;;56.72;25.95;;;;;;;;;;5046166;28;20035;-81
2022/12/14 08:08:31;;;;;;;52.03;21.98;;;;;;;;;;5056204;28;20024;-81
2022/12/14 08:10:57;;;;;;;64.18;27.98;;;;;;;;;;5073888;28;20032;-80
2022/12/14 08:13:24;;;;;;;67.28;32.15;;;;;;;;;;5040674;28;20089;-79
2022/12/14 08:15:49;;;;;;;60.75;27.25;;;;;;;;;;5057089;28;20047;-79
2022/12/14 08:18:15;;;;;;;60.42;25.98;;;;;;;;;;5074720;28;20449;-79
2022/12/14 08:20:40;;;;;;;64.55;26.83;;;;;;;;;;5057675;28;20051;-81
2022/12/14 08:23:06;;;;;;;60.53;26.60;;;;;;;;;;5057610;28;20471;-80
2022/12/14 08:25:31;;;;;;;60.97;27.42;;;;;;;;;;5057276;28;20043;-79
2022/12/14 08:27:57;;;;;;;65.85;31.05;;;;;;;;;;5058530;28;20033;-79
2022/12/14 08:30:23;;;;;;;62.30;25.48;;;;;;;;;;5075098;28;20029;-80
2022/12/14 08:32:48;;;;;;;60.28;26.20;;;;;;;;;;5055984;28;20032;-79
2022/12/14 08:35:14;;;;;;;56.17;25.95;;;;;;;;;;5038614;28;20049;-79
2022/12/14 08:37:39;;;;;;;65.35;29.83;;;;;;;;;;5038508;28;20028;-80
2022/12/14 08:40:05;;;;;;;62.83;26.25;;;;;;;;;;5055717;28;20028;-80
2022/12/14 08:42:31;;;;;;;43.50;17.60;;;;;;;;;;5076105;28;20432;-79
2022/12/14 08:44:56;;;;;;;65.22;28.92;;;;;;;;;;5040609;28;20052;-80
2022/12/14 08:47:22;;;;;;;58.03;24.17;;;;;;;;;;5076492;28;20442;-80
2022/12/14 08:49:50;;;;;;;59.83;25.38;;;;;;;;;;5057477;28;20048;-80
2022/12/14 08:52:15;;;;;;;66.10;28.55;;;;;;;;;;5074820;28;20067;-81
2022/12/14 08:54:41;;;;;;;68.90;31.55;;;;;;;;;;5073662;28;20063;-78
2022/12/14 08:57:06;;;;;;;59.42;25.40;;;;;;;;;;5021254;28;20035;-78
2022/12/14 08:59:32;;;;;;;66.15;29.67;;;;;;;;;;5072986;28;20059;-81
2022/12/14 09:01:58;;;;;;;64.50;27.75;;;;;;;;;;5055834;28;20123;-85
2022/12/14 09:04:23;;;;;;;57.55;25.85;;;;;;;;;;5073599;28;20025;-81
2022/12/14 09:06:49;;;;;;;67.65;28.80;;;;;;;;;;5073326;28;20032;-80
2022/12/14 09:09:14;;;;;;;59.05;25.38;;;;;;;;;;5054718;28;20296;-81
2022/12/14 09:11:40;;;;;;;60.65;26.73;;;;;;;;;;5073734;28;20025;-80
2022/12/14 09:14:05;;;;;;;58.95;25.80;;;;;;;;;;5074374;28;20640;-82
2022/12/14 09:16:31;;;;;;;61.30;28.40;;;;;;;;;;5072910;28;20447;-80
2022/12/14 09:18:57;;;;;;;63.45;27.17;;;;;;;;;;5074886;28;20123;-79
2022/12/14 09:21:22;;;;;;;60.83;28.25;;;;;;;;;;5074403;28;20029;-81
2022/12/14 09:23:48;;;;;;;64.35;29.85;;;;;;;;;;5074175;28;20402;-80
2022/12/14 09:26:20;;;;;;;60.25;26.77;;;;;;;;;;5039728;28;20058;-81
2022/12/14 09:28:50;;;;;;;61.08;28.95;;;;;;;;;;5056435;28;20032;-80
2022/12/14 09:31:18;;;;;;;54.50;26.00;;;;;;;;;;5073365;28;20377;-81
2022/12/14 09:33:43;;;;;;;57.00;25.30;;;;;;;;;;5054927;28;20055;-80
2022/12/14 09:36:22;;;;;;;54.55;26.10;;;;;;;;;;5054574;28;20037;-79
2022/12/14 09:38:48;;;;;;;53.17;25.30;;;;;;;;;;5055896;28;20052;-81
2022/12/14 09:41:25;;;;;;;59.95;27.67;;;;;;;;;;5037115;28;20400;-79
2022/12/14 09:44:09;;;;;;;58.10;26.20;;;;;;;;;;5020721;28;20069;-80
2022/12/14 09:46:40;;;;;;;55.42;23.13;;;;;;;;;;5065186;28;20040;-78
2022/12/14 09:49:25;;;;;;;51.83;23.30;;;;;;;;;;5073293;28;20131;-80
2022/12/14 09:51:51;;;;;;;54.55;24.63;;;;;;;;;;5072618;28;20082;-80
2022/12/14 09:54:17;;;;;;;60.28;26.95;;;;;;;;;;5038559;28;20060;-80
2022/12/14 09:56:43;;;;;;;56.00;24.50;;;;;;;;;;5071169;28;20119;-82
2022/12/14 09:59:11;;;;;;;59.92;26.98;;;;;;;;;;5037429;28;20169;-80
2022/12/14 10:02:05;;;;;;;51.13;23.33;;;;;;;;;;5039133;28;20032;-78
2022/12/14 10:04:37;;;;;;;54.47;25.13;;;;;;;;;;5033986;28;20127;-80
2022/12/14 10:07:32;;;;;;;61.22;26.08;;;;;;;;;;5070634;28;20039;-79
2022/12/14 10:10:26;;;;;;;51.67;23.05;;;;;;;;;;5068950;28;20025;-79
2022/12/14 10:13:39;;;;;;;54.38;25.65;;;;;;;;;;5070226;28;20044;-79
2022/12/14 10:16:25;;;;;;;49.47;23.38;;;;;;;;;;4969469;28;20022;-80
2022/12/14 10:19:19;;;;;;;57.95;28.23;;;;;;;;;;4947191;28;20043;-82
2022/12/14 10:21:54;;;;;;;57.25;25.38;;;;;;;;;;5053985;28;20166;-81
2022/12/14 10:24:22;;;;;;;53.78;25.38;;;;;;;;;;5070456;28;20025;-80
2022/12/14 10:26:53;;;;;;;65.88;28.65;;;;;;;;;;5054285;28;20028;-78
2022/12/14 10:29:24;;;;;;;49.55;19.27;;;;;;;;;;5054462;28;20386;-80
2022/12/14 10:32:27;;;;;;;54.15;22.52;;;;;;;;;;5071862;28;20464;-80
2022/12/14 10:34:53;;;;;;;57.53;25.60;;;;;;;;;;5084847;28;20123;-80
2022/12/14 10:37:24;;;;;;;52.40;23.98;;;;;;;;;;5054855;28;20115;-79
2022/12/14 10:40:08;;;;;;;55.47;25.17;;;;;;;;;;5053339;28;20028;-81
2022/12/14 10:43:15;;;;;;;59.67;25.10;;;;;;;;;;5070137;28;20029;-80
2022/12/14 10:46:05;;;;;;;62.97;28.90;;;;;;;;;;4954288;28;20111;-80
2022/12/14 10:48:44;;;;;;;56.90;25.90;;;;;;;;;;4956713;28;20195;-81
2022/12/14 10:51:28;;;;;;;50.80;22.05;;;;;;;;;;5044112;28;20028;-79
2022/12/14 10:53:59;;;;;;;55.50;24.55;;;;;;;;;;5036340;28;20028;-81
2022/12/14 11:04:59;;;;;;;56.35;25.40;;;;;;;;;;5990228;22;20045;-79
2022/12/14 11:07:26;;;;;;;54.95;24.10;;;;;;;;;;5009505;28;20029;-82
2022/12/14 11:09:52;;;;;;;54.47;24.45;;;;;;;;;;4996472;28;20025;-81
2022/12/14 11:12:17;;;;;;;56.47;24.92;;;;;;;;;;5014320;28;20037;-81
2022/12/14 11:14:50;;;;;;;57.95;25.95;;;;;;;;;;5032547;28;20413;-81
2022/12/14 11:17:39;;;;;;;53.58;24.73;;;;;;;;;;5037145;28;20122;-81
2022/12/14 11:20:08;;;;;;;51.30;24.70;;;;;;;;;;5001650;28;20040;-79
2022/12/14 11:22:53;;;;;;;54.53;23.90;;;;;;;;;;5034902;28;20040;-82
2022/12/14 11:25:53;;;;;;;58.17;25.92;;;;;;;;;;5031932;28;20034;-82
2022/12/14 11:33:56;;;;;;;51.47;23.65;;;;;;;;;;5607266;22;20071;-82
2022/12/14 11:36:27;;;;;;;57.00;29.08;;;;;;;;;;5033563;28;20071;-79
2022/12/14 11:38:57;;;;;;;56.45;25.33;;;;;;;;;;5024376;28;20029;-79
2022/12/14 11:41:23;;;;;;;51.00;22.95;;;;;;;;;;5011200;28;20033;-80
2022/12/14 11:44:25;;;;;;;59.58;29.10;;;;;;;;;;5008727;28;20044;-81
2022/12/14 11:46:56;;;;;;;62.25;27.55;;;;;;;;;;5026654;28;20049;-81
2022/12/14 11:49:37;;;;;;;47.85;22.10;;;;;;;;;;5049233;28;20083;-82
2022/12/14 11:52:03;;;;;;;58.53;27.33;;;;;;;;;;5035325;28;20061;-80
2022/12/14 11:54:28;;;;;;;52.88;24.17;;;;;;;;;;5053511;28;20486;-81
2022/12/14 11:56:59;;;;;;;53.08;24.50;;;;;;;;;;5054262;28;20085;-82
2022/12/14 11:59:28;;;;;;;55.83;26.95;;;;;;;;;;5038137;28;20035;-81
2022/12/14 12:01:55;;;;;;;52.83;25.15;;;;;;;;;;5035068;28;20072;-81
2022/12/14 12:04:20;;;;;;;52.95;22.73;;;;;;;;;;5051932;28;20028;-82
2022/12/14 12:06:46;;;;;;;45.45;20.73;;;;;;;;;;5053490;28;20021;-81
2022/12/14 12:09:25;;;;;;;56.47;24.10;;;;;;;;;;5052390;28;20505;-81
2022/12/14 12:11:51;;;;;;;51.00;23.20;;;;;;;;;;5035467;28;20021;-80
2022/12/14 12:14:29;;;;;;;52.75;23.75;;;;;;;;;;5055344;28;20123;-81
2022/12/14 12:16:54;;;;;;;49.17;22.55;;;;;;;;;;5038352;28;20033;-81
2022/12/14 12:19:29;;;;;;;50.00;21.67;;;;;;;;;;5033480;28;20041;-80
2022/12/14 12:21:55;;;;;;;49.17;22.58;;;;;;;;;;5019610;28;20084;-80
2022/12/14 12:24:35;;;;;;;61.50;27.80;;;;;;;;;;5017379;28;20458;-80
2022/12/14 12:27:10;;;;;;;59.25;23.85;;;;;;;;;;5002286;28;20539;-83
2022/12/14 12:29:45;;;;;;;53.55;26.27;;;;;;;;;;5029906;28;20545;-83
2022/12/14 12:32:49;;;;;;;51.50;23.52;;;;;;;;;;5046628;28;20032;-83
2022/12/14 12:35:16;;;;;;;66.47;26.83;;;;;;;;;;5019839;28;20054;-82
2022/12/14 12:37:52;;;;;;;60.33;25.73;;;;;;;;;;4996771;28;20125;-82
2022/12/14 12:40:32;;;;;;;56.78;27.20;;;;;;;;;;4997331;28;20060;-83
2022/12/14 12:42:59;;;;;;;;;;;;;;;;;;5007352;28;20038;-81
2022/12/14 12:45:35;;;;;;;49.65;22.05;;;;;;;;;;5025632;28;20323;-81
2022/12/14 12:48:16;;;;;;;60.08;26.48;;;;;;;;;;4977203;28;20064;-81
2022/12/14 12:50:47;;;;;;;56.78;27.77;;;;;;;;;;4995195;28;20038;-81
2022/12/14 12:53:27;;;;;;;47.88;22.77;;;;;;;;;;4993743;28;20076;-81
2022/12/14 12:55:54;;;;;;;70.40;30.25;;;;;;;;;;4994539;28;20034;-81
2022/12/14 12:58:22;;;;;;;53.45;22.52;;;;;;;;;;4994971;28;20046;-80
2022/12/14 13:00:50;;;;;;;45.28;21.25;;;;;;;;;;4979616;28;20034;-79
2022/12/14 13:03:36;;;;;;;46.25;21.63;;;;;;;;;;4980009;28;20367;-80
2022/12/14 13:06:21;;;;;;;45.97;21.88;;;;;;;;;;5012980;28;20374;-80
2022/12/14 13:08:48;;;;;;;47.30;22.08;;;;;;;;;;4998109;28;20038;-79
2022/12/14 13:11:16;;;;;;;48.00;22.08;;;;;;;;;;4982142;28;20033;-80
2022/12/14 13:13:48;;;;;;;49.92;22.48;;;;;;;;;;4982224;28;20033;-80
2022/12/14 13:16:21;;;;;;;46.45;22.00;;;;;;;;;;4982393;28;20029;-79
2022/12/14 13:18:50;;;;;;;50.80;23.75;;;;;;;;;;4982788;28;20026;-79
2022/12/14 13:21:27;;;;;;;45.60;22.67;;;;;;;;;;4998505;28;20441;-80
2022/12/14 13:23:53;;;;;;;54.20;23.30;;;;;;;;;;5015550;28;20044;-81
2022/12/14 13:26:46;;;;;;;61.40;26.52;;;;;;;;;;4998056;28;20112;-81
2022/12/14 13:29:21;;;;;;;59.30;25.08;;;;;;;;;;5000182;28;20424;-81
2022/12/14 13:31:55;;;;;;;67.03;28.85;;;;;;;;;;4998031;28;20065;-81
2022/12/14 13:34:23;;;;;;;71.40;30.55;;;;;;;;;;5030167;28;20049;-81
2022/12/14 13:37:26;;;;;;;79.40;28.85;;;;;;;;;;5035160;28;20037;-82
2022/12/14 13:39:54;;;;;;;67.20;28.67;;;;;;;;;;5034998;28;20030;-81
2022/12/14 13:42:32;;;;;;;61.53;25.98;;;;;;;;;;5035209;28;20025;-79
2022/12/14 13:44:59;;;;;;;65.38;29.08;;;;;;;;;;5034777;28;20493;-82
2022/12/14 13:47:40;;;;;;;60.45;26.02;;;;;;;;;;5001419;28;20029;-81
2022/12/14 13:50:14;;;;;;;61.42;24.63;;;;;;;;;;5035063;28;20474;-80
2022/12/14 13:52:41;;;;;;;62.65;24.98;;;;;;;;;;5002561;28;20129;-81
2022/12/14 13:55:28;;;;;;;57.42;24.35;;;;;;;;;;5017532;28;20128;-83
2022/12/14 13:58:03;;;;;;;54.60;23.02;;;;;;;;;;5016965;28;20128;-80
2022/12/14 14:00:45;;;;;;;66.50;24.52;;;;;;;;;;5018528;28;20037;-80
2022/12/14 14:03:32;;;;;;;58.20;24.23;;;;;;;;;;5017010;28;20072;-80
2022/12/14 14:06:10;;;;;;;51.28;21.85;;;;;;;;;;5032509;28;20048;-79
2022/12/14 14:08:36;;;;;;;46.78;21.42;;;;;;;;;;5033366;28;20033;-80
2022/12/14 14:11:17;;;;;;;40.63;19.45;;;;;;;;;;4999909;28;20603;-79
2022/12/14 14:13:42;;;;;;;;;;;;;;;;;;5033787;28;20292;-80
2022/12/14 14:16:23;;;;;;;46.42;19.95;;;;;;;;;;5033527;28;19913;-80
2022/12/14 14:18:53;;;;;;;;;;;;;;;;;;5001870;28;20419;-80
2022/12/14 14:21:19;;;;;;;47.30;19.88;;;;;;;;;;5048149;28;19932;-79
2022/12/14 14:24:13;;;;;;;46.60;21.13;;;;;;;;;;5033114;28;20215;-79
2022/12/14 14:26:40;;;;;;;48.53;21.88;;;;;;;;;;5032895;28;20052;-81
2022/12/14 14:29:24;;;;;;;50.70;22.63;;;;;;;;;;4998396;28;20032;-80
2022/12/14 14:32:05;;;;;;;45.92;21.40;;;;;;;;;;5000019;28;20414;-80
2022/12/14 14:34:43;;;;;;;43.88;19.92;;;;;;;;;;5000034;28;20084;-80
2022/12/14 14:37:18;;;;;;;41.67;19.15;;;;;;;;;;5033823;28;20060;-80
2022/12/14 14:39:44;;;;;;;41.20;21.02;;;;;;;;;;5017376;28;20033;-80
2022/12/14 14:42:28;;;;;;;44.75;20.08;;;;;;;;;;4999899;28;20032;-80
2022/12/14 14:44:55;;;;;;;47.13;21.27;;;;;;;;;;5016205;28;20413;-80
2022/12/14 14:47:37;;;;;;;43.17;21.08;;;;;;;;;;5016228;28;20037;-80
2022/12/14 14:50:14;;;;;;;66.45;26.10;;;;;;;;;;5002908;28;20032;-80
2022/12/14 14:52:43;;;;;;;51.97;22.08;;;;;;;;;;5053644;28;20025;-79
2022/12/14 14:55:36;;;;;;;53.47;27.65;;;;;;;;;;5054005;28;20098;-80
2022/12/14 14:58:01;;;;;;;48.75;23.10;;;;;;;;;;5035573;28;20454;-80
2022/12/14 15:00:28;;;;;;;52.65;23.80;;;;;;;;;;5036076;28;20031;-80
2022/12/14 15:02:53;;;;;;;53.08;26.15;;;;;;;;;;5036390;28;20057;-80
2022/12/14 15:05:23;;;;;;;50.13;23.80;;;;;;;;;;5036068;28;20064;-80
2022/12/14 15:07:48;;;;;;;55.92;26.98;;;;;;;;;;5020208;28;20021;-80
2022/12/14 15:10:34;;;;;;;67.03;28.77;;;;;;;;;;5019488;28;20442;-80
2022/12/14 15:13:05;;;;;;;53.95;24.58;;;;;;;;;;5020934;28;20043;-80